Time;durP1;ratioP1;P1;durP2;ratioP2;P2;SDS_P1;SDS_P2;PMS_P1;PMS_P2;Temp;Humidity;BMP_temperature;BMP_pressure;BME280_temperature;BME280_humidity;BME280_pressure;Samples;Min_cycle;Max_cycle;Signal;HPM_P1;HPM_P2
2022/07/13 00:00:35;;;;;;;3.53;2.27;;;24.20;53.00;;;24.51;38.00;99367.69;4992849;28;119302;-89
2022/07/13 00:03:02;;;;;;;3.30;1.50;;;24.20;53.20;;;24.49;38.12;99369.28;4973753;28;123815;-89
2022/07/13 00:05:29;;;;;;;2.50;1.80;;;24.10;53.20;;;24.46;38.48;99368.03;4968692;28;124123;-88
2022/07/13 00:07:55;;;;;;;3.40;1.93;;;24.10;53.30;;;24.42;38.19;99381.28;4978205;28;119173;-90
2022/07/13 00:10:22;;;;;;;2.87;1.53;;;24.00;53.40;;;24.39;38.25;99370.78;5006866;28;117197;-89
2022/07/13 00:12:48;;;;;;;3.40;2.03;;;24.00;53.50;;;24.36;38.19;99363.09;4976620;28;124156;-90
2022/07/13 00:15:14;;;;;;;2.00;1.63;;;24.00;53.70;;;24.33;38.50;99363.88;4988136;28;123270;-89
2022/07/13 00:17:41;;;;;;;5.93;1.80;;;23.90;53.70;;;24.28;38.74;99359.38;4984538;28;119531;-90
2022/07/13 00:20:08;;;;;;;2.73;1.60;;;23.90;53.90;;;24.24;38.91;99362.19;5000130;28;118373;-91
2022/07/13 00:22:35;;;;;;;2.50;1.77;;;23.90;54.10;;;24.21;38.94;99362.97;4978124;28;124194;-88
2022/07/13 00:25:02;;;;;;;4.30;2.10;;;23.80;54.10;;;24.17;39.01;99364.94;4986822;28;123553;-89
2022/07/13 00:27:28;;;;;;;6.90;2.20;;;23.80;54.20;;;24.14;39.07;99370.56;4988948;28;117723;-89
2022/07/13 00:29:55;;;;;;;4.20;1.50;;;23.80;54.50;;;24.09;39.24;99371.75;4987060;28;119528;-89
2022/07/13 00:32:21;;;;;;;2.50;1.90;;;23.70;54.60;;;24.06;39.41;99361.22;4985179;28;124300;-90
2022/07/13 00:34:48;;;;;;;3.27;1.63;;;23.70;54.80;;;24.05;39.58;99368.09;4985025;28;123235;-89
2022/07/13 00:37:15;;;;;;;2.67;1.70;;;23.70;54.90;;;24.02;39.47;99368.88;4989050;28;118190;-89
2022/07/13 00:39:41;;;;;;;2.07;1.83;;;23.60;54.90;;;23.98;39.47;99366.00;4989413;28;118442;-90
2022/07/13 00:42:09;;;;;;;7.90;2.33;;;23.60;55.00;;;23.96;39.52;99373.22;4986615;28;124683;-89
2022/07/13 00:44:35;;;;;;;3.33;1.40;;;23.60;55.20;;;23.95;39.78;99368.78;4986811;28;122955;-88
2022/07/13 00:47:02;;;;;;;3.27;1.70;;;23.50;55.20;;;23.92;39.68;99364.72;5004492;28;118778;-89
2022/07/13 00:49:31;;;;;;;2.80;1.47;;;23.50;55.30;;;23.91;39.94;99363.13;4991487;28;118980;-89
2022/07/13 00:51:58;;;;;;;4.10;1.90;;;23.50;55.60;;;23.88;39.79;99365.88;4983592;28;124411;-90
2022/07/13 00:54:31;;;;;;;3.30;1.67;;;23.50;55.60;;;23.87;39.66;99367.09;4970988;28;124541;-89
2022/07/13 00:56:59;;;;;;;4.17;1.63;;;23.50;55.70;;;23.83;39.91;99361.44;4986642;28;119647;-90
2022/07/13 00:59:26;;;;;;;4.20;2.00;;;23.40;55.70;;;23.80;39.70;99374.31;4976679;28;118875;-88
2022/07/13 01:01:54;;;;;;;5.27;1.60;;;23.40;55.80;;;23.78;39.94;99365.41;4977937;28;124180;-88
2022/07/13 01:04:23;;;;;;;3.33;1.83;;;23.40;55.90;;;23.75;40.01;99365.34;4989513;28;124323;-90
2022/07/13 01:06:54;;;;;;;2.40;1.60;;;23.40;56.00;;;23.72;40.07;99366.97;4987957;28;119719;-90
2022/07/13 01:09:22;;;;;;;3.50;1.60;;;23.30;56.00;;;23.69;40.20;99359.22;4984357;28;119343;-90
2022/07/13 01:11:50;;;;;;;3.60;1.70;;;23.30;56.10;;;23.68;40.25;99360.44;4982730;28;124098;-90
2022/07/13 01:14:17;;;;;;;2.80;1.50;;;23.30;56.10;;;23.66;39.99;99353.56;4981156;28;123829;-90
2022/07/13 01:16:44;;;;;;;2.13;1.27;;;23.20;56.10;;;23.63;40.21;99351.50;4984542;28;119415;-90
2022/07/13 01:19:13;;;;;;;2.40;1.80;;;23.20;56.10;;;23.60;39.94;99350.28;4970320;28;118316;-90
2022/07/13 01:21:44;;;;;;;3.23;1.30;;;23.20;56.10;;;23.57;40.27;99349.03;4984335;28;121838;-89
2022/07/13 01:24:14;;;;;;;2.50;1.40;;;23.20;56.20;;;23.54;40.32;99349.81;4980485;28;124440;-90
2022/07/13 01:26:40;;;;;;;1.90;1.40;;;23.20;56.20;;;23.52;40.35;99342.94;4984482;28;119261;-91
2022/07/13 01:29:07;;;;;;;1.63;1.23;;;23.10;56.20;;;23.50;40.24;99345.31;4978153;28;119309;-90
2022/07/13 01:31:40;;;;;;;1.40;1.30;;;23.10;56.30;;;23.48;40.43;99347.72;4975942;28;124082;-91
2022/07/13 01:34:07;;;;;;;2.10;1.43;;;23.10;56.40;;;23.46;40.42;99341.66;4985309;28;122760;-90
2022/07/13 01:36:39;;;;;;;2.20;1.40;;;23.00;56.40;;;23.43;40.46;99348.88;4972633;28;119544;-91
2022/07/13 01:39:06;;;;;;;2.80;1.70;;;23.00;56.60;;;23.42;40.33;99349.25;4970846;28;118797;-90
2022/07/13 01:41:33;;;;;;;2.07;1.60;;;23.00;56.60;;;23.40;40.69;99344.03;4986034;28;124648;-90
2022/07/13 01:44:00;;;;;;;2.90;1.90;;;23.00;56.80;;;23.38;40.50;99341.56;4980062;28;123755;-90
2022/07/13 01:46:28;;;;;;;2.40;1.97;;;23.00;56.90;;;23.36;40.71;99346.78;4964865;28;118138;-91
2022/07/13 01:48:55;;;;;;;2.23;1.80;;;23.00;56.90;;;23.35;40.49;99347.19;4976960;28;119265;-90
2022/07/13 01:51:22;;;;;;;1.77;1.50;;;22.90;56.90;;;23.34;40.51;99346.34;4977999;28;123674;-90
2022/07/13 01:53:49;;;;;;;2.47;1.63;;;22.90;57.00;;;23.32;40.62;99343.13;4975849;28;123958;-90
2022/07/13 01:56:15;;;;;;;3.70;1.40;;;22.90;57.00;;;23.29;40.84;99337.44;4987604;28;119802;-89
2022/07/13 01:58:42;;;;;;;3.40;1.47;;;22.90;57.10;;;23.27;40.69;99340.66;4984525;28;118923;-89
2022/07/13 02:01:08;;;;;;;2.43;1.30;;;22.90;57.20;;;23.24;40.79;99343.41;4993461;28;124002;-89
2022/07/13 02:03:35;;;;;;;2.50;1.63;;;22.80;57.10;;;23.20;40.70;99348.19;4997263;28;123076;-91
2022/07/13 02:06:03;;;;;;;5.90;2.13;;;22.80;57.20;;;23.16;41.01;99331.25;4990404;28;119539;-89
2022/07/13 02:08:29;;;;;;;1.90;1.70;;;22.70;57.30;;;23.14;41.10;99330.81;4979543;28;119378;-90
2022/07/13 02:10:56;;;;;;;2.07;1.57;;;22.70;57.40;;;23.10;41.11;99336.41;4989175;28;124312;-91
2022/07/13 02:13:22;;;;;;;2.73;1.33;;;22.70;57.60;;;23.09;41.05;99331.16;4988500;28;123813;-89
2022/07/13 02:15:50;;;;;;;1.60;1.40;;;22.60;57.60;;;23.06;41.17;99329.09;4989653;28;119286;-88
2022/07/13 02:18:17;;;;;;;2.57;1.53;;;22.60;57.60;;;23.01;41.03;99321.00;4969193;28;117550;-90
2022/07/13 02:20:43;;;;;;;2.47;1.67;;;22.60;57.70;;;22.98;41.09;99321.75;4991502;28;123917;-91
2022/07/13 02:23:10;;;;;;;2.50;1.43;;;22.50;57.70;;;22.97;41.44;99315.31;4976753;28;124192;-90
2022/07/13 02:25:37;;;;;;;1.30;1.20;;;22.50;57.80;;;22.94;41.56;99308.41;4980416;28;119403;-90
2022/07/13 02:28:06;;;;;;;1.97;1.27;;;22.50;57.90;;;22.93;41.48;99298.31;4973044;28;119712;-90
2022/07/13 02:30:34;;;;;;;1.60;1.50;;;22.50;58.00;;;22.92;41.26;99291.06;4980586;28;124144;-90
2022/07/13 02:33:01;;;;;;;1.90;1.27;;;22.50;58.20;;;22.94;41.69;99299.97;4988932;28;123892;-90
2022/07/13 02:35:28;;;;;;;1.80;1.40;;;22.50;58.40;;;22.94;41.78;99291.50;4989423;28;119436;-90
2022/07/13 02:37:54;;;;;;;3.13;1.47;;;22.50;58.40;;;22.93;41.54;99292.69;4990031;28;118590;-91
2022/07/13 02:40:21;;;;;;;1.83;1.40;;;22.50;58.50;;;22.93;41.66;99284.22;4981997;28;123745;-89
2022/07/13 02:42:48;;;;;;;6.50;1.30;;;22.50;58.50;;;22.92;41.33;99284.63;4979062;28;123634;-90
2022/07/13 02:45:15;;;;;;;1.97;1.40;;;22.50;58.50;;;22.88;41.63;99283.75;4985115;28;119293;-90
2022/07/13 02:47:42;;;;;;;2.07;1.33;;;22.40;58.40;;;22.85;41.92;99284.53;4985236;28;118770;-91
2022/07/13 02:50:08;;;;;;;2.00;1.40;;;22.40;58.60;;;22.82;41.55;99288.91;4983851;28;124093;-89
2022/07/13 02:52:35;;;;;;;3.37;1.60;;;22.40;58.70;;;22.79;41.86;99286.88;4991765;28;122902;-90
2022/07/13 02:55:01;;;;;;;3.00;1.40;;;22.40;58.80;;;22.78;41.98;99285.22;4986251;28;119952;-89
2022/07/13 02:57:28;;;;;;;1.57;1.23;;;22.40;58.90;;;22.79;42.10;99286.88;4988563;28;118804;-90
2022/07/13 02:59:54;;;;;;;1.80;1.37;;;22.30;58.90;;;22.76;41.82;99295.28;4978211;28;124525;-89
2022/07/13 03:02:21;;;;;;;2.10;1.27;;;22.30;59.00;;;22.71;42.11;99285.16;4987955;28;123674;-89
2022/07/13 03:04:47;;;;;;;1.90;1.57;;;22.30;59.10;;;22.69;42.20;99293.16;4991754;28;119540;-89
2022/07/13 03:07:15;;;;;;;1.33;1.10;;;22.20;59.20;;;22.70;42.41;99289.16;4981770;28;119114;-89
2022/07/13 03:09:42;;;;;;;2.00;1.13;;;22.30;59.40;;;22.69;42.20;99288.34;4988365;28;124282;-90
2022/07/13 03:12:08;;;;;;;2.27;1.40;;;22.20;59.40;;;22.70;42.14;99289.16;4990821;28;123976;-91
2022/07/13 03:14:35;;;;;;;2.40;1.40;;;22.20;59.60;;;22.70;42.56;99294.78;4986108;28;120489;-90
2022/07/13 03:17:02;;;;;;;3.10;1.50;;;22.20;59.60;;;22.69;42.29;99293.97;4971358;28;120071;-91
2022/07/13 03:19:29;;;;;;;1.73;1.20;;;22.20;59.60;;;22.70;42.24;99289.16;4990998;28;124173;-91
2022/07/13 03:21:56;;;;;;;1.80;1.50;;;22.20;59.70;;;22.68;42.13;99288.75;4990164;28;123357;-90
2022/07/13 03:24:22;;;;;;;1.40;1.23;;;22.20;59.70;;;22.66;42.57;99280.66;4986457;28;119546;-90
2022/07/13 03:26:49;;;;;;;1.80;1.37;;;22.20;59.80;;;22.65;42.45;99278.25;4989084;28;118240;-89
2022/07/13 03:29:15;;;;;;;1.50;1.30;;;22.20;60.00;;;22.63;42.59;99283.44;4985884;28;124438;-90
2022/07/13 03:31:42;;;;;;;1.80;1.47;;;22.20;60.80;;;22.60;43.11;99279.38;4982936;28;123610;-91
2022/07/13 03:34:08;;;;;;;2.97;1.47;;;22.20;60.30;;;22.61;43.11;99285.81;4967670;28;118565;-90
2022/07/13 03:36:35;;;;;;;3.80;1.33;;;22.20;60.50;;;22.57;43.15;99280.16;4974928;28;118181;-91
2022/07/13 03:39:01;;;;;;;2.60;1.53;;;22.10;60.70;;;22.57;43.16;99279.31;4977145;28;123608;-91
2022/07/13 03:41:28;;;;;;;2.90;1.47;;;22.10;60.90;;;22.56;43.45;99280.53;4975075;28;122816;-91
2022/07/13 03:43:54;;;;;;;2.50;1.80;;;22.10;61.10;;;22.55;43.60;99285.34;4969251;28;120043;-90
2022/07/13 03:46:21;;;;;;;2.47;1.80;;;22.10;61.30;;;22.54;43.69;99291.34;4969207;28;119270;-90
2022/07/13 03:48:49;;;;;;;1.80;1.40;;;22.10;61.60;;;22.50;43.90;99292.13;4978944;28;123828;-89
2022/07/13 03:51:15;;;;;;;2.50;1.70;;;22.10;61.80;;;22.46;43.94;99288.44;4978934;28;123655;-90
2022/07/13 03:53:42;;;;;;;3.13;1.40;;;22.00;62.10;;;22.44;43.96;99285.19;4979069;28;119434;-89
2022/07/13 03:56:08;;;;;;;3.13;1.50;;;22.00;62.40;;;22.40;44.48;99287.13;4969007;28;118953;-89
2022/07/13 03:58:34;;;;;;;2.00;1.60;;;22.00;62.80;;;22.37;44.43;99287.09;4969798;28;124192;-90
2022/07/13 04:01:01;;;;;;;3.33;1.50;;;21.90;63.00;;;22.35;44.75;99284.66;4962933;28;121872;-90
2022/07/13 04:03:28;;;;;;;1.83;1.30;;;21.90;64.00;;;22.44;44.85;99276.75;4980534;28;120369;-91
2022/07/13 04:05:54;;;;;;;2.67;1.77;;;21.90;63.70;;;22.59;44.57;99276.94;4982695;28;119179;-88
2022/07/13 04:08:21;;;;;;;2.00;1.60;;;22.00;64.00;;;22.66;44.19;99277.84;4979192;28;123874;-90
2022/07/13 04:10:47;;;;;;;2.80;1.77;;;22.00;64.00;;;22.67;44.73;99285.09;4987958;28;122848;-90
2022/07/13 04:13:14;;;;;;;5.60;1.90;;;21.30;63.50;;;22.68;44.96;99280.28;4985378;28;120099;-88
2022/07/13 04:15:40;;;;;;;4.03;1.83;;;22.00;64.50;;;22.77;44.70;99269.53;4981379;28;118944;-87
2022/07/13 04:18:07;;;;;;;6.80;1.93;;;22.00;64.70;;;22.84;44.50;99272.44;4976680;28;124120;-88
2022/07/13 04:20:33;;;;;;;2.00;1.57;;;22.10;64.70;;;22.77;44.78;99271.53;4987491;28;123943;-89
2022/07/13 04:23:00;;;;;;;3.10;1.70;;;22.10;65.00;;;22.64;45.22;99268.16;4980412;28;119036;-89
2022/07/13 04:25:26;;;;;;;3.57;1.87;;;22.00;65.40;;;22.48;45.63;99259.91;4987876;28;119046;-87
2022/07/13 04:27:53;;;;;;;2.67;1.90;;;22.00;65.60;;;22.35;45.84;99258.50;4978044;28;124588;-88
2022/07/13 04:30:19;;;;;;;2.33;1.60;;;21.80;65.70;;;22.31;46.13;99254.84;4969327;28;124024;-90
2022/07/13 04:32:46;;;;;;;2.53;1.77;;;21.80;66.10;;;22.27;45.90;99263.22;4978116;28;119884;-88
2022/07/13 04:35:13;;;;;;;2.00;1.53;;;21.80;66.40;;;22.27;46.24;99251.94;4964790;28;121381;-88
2022/07/13 04:37:39;;;;;;;4.60;2.00;;;21.80;66.50;;;22.28;45.94;99248.78;4966039;28;123964;-88
2022/07/13 04:40:06;;;;;;;2.77;1.70;;;21.80;66.70;;;22.32;45.94;99246.00;4965755;28;124471;-90
2022/07/13 04:42:33;;;;;;;2.90;1.70;;;21.80;66.80;;;22.37;46.07;99254.13;4969568;28;119345;-88
2022/07/13 04:44:59;;;;;;;4.90;1.90;;;21.90;67.00;;;22.41;46.08;99249.34;4967787;28;119373;-89
2022/07/13 04:47:26;;;;;;;4.00;1.80;;;21.90;66.80;;;22.46;45.65;99251.84;4965984;28;124171;-89
2022/07/13 04:49:53;;;;;;;2.00;1.80;;;21.90;66.80;;;22.50;45.55;99263.16;4983442;28;123079;-88
2022/07/13 04:52:21;;;;;;;5.47;2.33;;;21.90;66.70;;;22.53;45.51;99250.31;4966871;28;120020;-88
2022/07/13 04:54:48;;;;;;;1.47;1.20;;;22.00;66.80;;;22.57;45.51;99262.41;4966266;28;119221;-87
2022/07/13 04:57:15;;;;;;;5.43;1.80;;;22.00;66.70;;;22.57;45.39;99262.41;4970267;28;124000;-88
2022/07/13 04:59:41;;;;;;;3.53;1.63;;;22.00;66.70;;;22.59;45.55;99272.09;4981875;28;124114;-89
2022/07/13 05:02:08;;;;;;;2.43;1.73;;;22.10;66.90;;;22.62;45.35;99270.53;4999079;28;119339;-87
2022/07/13 05:04:34;;;;;;;3.13;1.70;;;22.10;66.90;;;22.62;45.51;99273.34;4986373;28;119126;-89
2022/07/13 05:07:01;;;;;;;2.00;1.63;;;22.10;67.10;;;22.59;45.76;99274.94;4985894;28;123376;-87
2022/07/13 05:09:28;;;;;;;3.53;1.60;;;22.00;67.30;;;22.55;45.49;99278.91;4982291;28;124268;-88
2022/07/13 05:11:54;;;;;;;2.43;1.80;;;22.00;67.40;;;22.50;46.04;99280.84;4956641;28;119277;-89
2022/07/13 05:14:21;;;;;;;8.47;1.90;;;22.00;67.60;;;22.45;46.00;99277.56;4980296;28;119027;-89
2022/07/13 05:16:48;;;;;;;1.80;1.60;;;21.90;67.70;;;22.42;46.02;99279.13;4986425;28;123997;-88
2022/07/13 05:19:14;;;;;;;2.83;1.50;;;21.90;67.80;;;22.42;46.24;99267.88;4982646;28;125422;-89
2022/07/13 05:21:41;;;;;;;3.50;1.80;;;21.90;67.90;;;22.44;46.08;99271.13;4987583;28;119364;-89
2022/07/13 05:24:08;;;;;;;4.70;1.87;;;21.90;67.90;;;22.46;45.74;99277.19;4989040;28;118989;-90
2022/07/13 05:26:36;;;;;;;4.23;1.93;;;21.90;67.90;;;22.51;46.09;99284.47;4987189;28;124294;-91
2022/07/13 05:29:04;;;;;;;4.87;1.90;;;22.00;68.00;;;22.57;45.86;99284.94;4983452;28;124017;-91
2022/07/13 05:31:31;;;;;;;3.20;1.70;;;22.00;68.00;;;22.63;45.64;99281.44;4982480;28;119370;-89
2022/07/13 05:33:57;;;;;;;3.73;1.60;;;22.00;67.90;;;22.70;45.65;99277.88;4982412;28;118898;-89
2022/07/13 05:36:24;;;;;;;3.67;1.80;;;22.10;68.00;;;22.77;45.37;99266.72;4969519;28;124126;-88
2022/07/13 05:38:50;;;;;;;2.57;1.67;;;22.20;68.10;;;22.86;45.36;99264.44;4972984;28;124461;-88
2022/07/13 05:41:17;;;;;;;2.93;1.97;;;22.20;67.90;;;22.93;44.89;99264.50;4971872;28;120199;-88
2022/07/13 05:43:43;;;;;;;2.40;1.77;;;22.30;67.80;;;22.98;44.91;99263.38;4970537;28;119935;-87
2022/07/13 05:46:10;;;;;;;6.73;1.90;;;22.30;67.50;;;23.02;44.71;99261.41;4971165;28;124341;-88
2022/07/13 05:48:36;;;;;;;3.60;1.70;;;22.40;67.40;;;23.07;44.72;99265.91;4972853;28;124016;-89
2022/07/13 05:51:03;;;;;;;10.40;2.00;;;22.40;67.30;;;23.14;44.45;99257.53;4988068;28;121137;-88
2022/07/13 05:53:30;;;;;;;3.40;1.90;;;22.50;67.20;;;23.19;44.12;99259.19;4985382;28;118697;-88
2022/07/13 05:55:57;;;;;;;4.27;2.30;;;22.50;67.00;;;23.21;44.42;99271.69;4987642;28;124244;-87
2022/07/13 05:58:23;;;;;;;6.77;2.40;;;22.60;66.90;;;23.24;44.54;99273.75;4987678;28;124953;-88
2022/07/13 06:00:50;;;;;;;3.17;1.77;;;22.60;66.80;;;23.25;44.17;99272.53;4977409;28;118415;-87
2022/07/13 06:03:16;;;;;;;2.70;1.80;;;22.70;66.80;;;23.27;44.23;99272.97;5001156;28;118936;-87
2022/07/13 06:05:42;;;;;;;2.97;1.83;;;22.70;66.80;;;23.32;44.21;99263.34;4983159;28;123523;-87
2022/07/13 06:08:09;;;;;;;4.53;2.20;;;22.70;66.80;;;23.39;44.29;99266.25;4979434;28;123680;-87
2022/07/13 06:10:36;;;;;;;3.47;1.87;;;22.80;66.90;;;23.43;44.27;99269.09;4987424;28;120292;-87
2022/07/13 06:13:02;;;;;;;5.10;2.10;;;22.80;66.90;;;23.41;44.29;99260.22;4983372;28;117959;-87
2022/07/13 06:15:29;;;;;;;4.40;1.87;;;22.80;66.90;;;23.35;44.46;99257.75;4989295;28;124665;-87
2022/07/13 06:17:55;;;;;;;3.07;1.90;;;22.80;67.00;;;23.33;44.62;99251.69;4987613;28;124652;-87
2022/07/13 06:20:22;;;;;;;6.47;2.23;;;22.80;67.20;;;23.31;44.44;99251.25;4979719;28;119712;-87
2022/07/13 06:23:09;;;;;;;6.13;2.33;;;22.70;67.10;;;23.30;44.49;99252.47;4988655;28;119231;-86
2022/07/13 06:25:36;;;;;;;4.80;2.33;;;22.70;67.20;;;23.32;44.77;99252.06;4988180;28;125162;-87
2022/07/13 06:28:05;;;;;;;3.17;2.17;;;22.80;67.50;;;23.31;44.64;99256.91;4991659;28;96836;-87
2022/07/13 06:30:33;;;;;;;3.80;2.20;;;22.70;67.40;;;23.33;44.51;99257.31;4985318;28;120525;-87
2022/07/13 06:33:00;;;;;;;3.57;2.30;;;22.80;67.70;;;23.36;44.75;99265.00;4974648;28;120055;-87
2022/07/13 06:35:26;;;;;;;4.40;2.80;;;22.80;67.70;;;23.42;44.47;99262.63;4984324;28;124091;-86
2022/07/13 06:37:53;;;;;;;6.87;2.57;;;22.80;67.70;;;23.46;44.21;99257.84;4982033;28;122898;-87
2022/07/13 06:40:19;;;;;;;5.83;2.50;;;22.90;67.80;;;23.51;44.48;99257.50;4983286;28;119551;-87
2022/07/13 06:42:46;;;;;;;4.03;2.30;;;22.90;67.60;;;23.57;44.25;99261.59;4986613;28;118961;-87
2022/07/13 06:45:13;;;;;;;7.40;1.97;;;23.00;67.80;;;23.63;44.38;99256.41;4987095;28;126530;-88
2022/07/13 06:47:41;;;;;;;10.97;2.37;;;23.00;67.70;;;23.64;44.16;99263.66;4986991;28;123722;-86
2022/07/13 06:50:08;;;;;;;7.23;3.33;;;23.00;67.50;;;23.68;44.25;99264.50;4984571;28;119778;-87
2022/07/13 06:52:37;;;;;;;6.60;2.50;;;23.10;67.60;;;23.72;44.16;99271.03;4984123;28;119082;-87
2022/07/13 06:55:04;;;;;;;4.70;2.50;;;23.10;67.60;;;23.85;44.03;99265.06;4985118;28;124544;-87
2022/07/13 06:57:31;;;;;;;8.87;2.70;;;23.20;67.70;;;23.96;43.88;99260.31;4987352;28;124062;-87
2022/07/13 06:59:58;;;;;;;5.07;2.10;;;23.20;67.70;;;24.03;43.71;99263.22;4977218;28;119876;-88
2022/07/13 07:02:24;;;;;;;3.27;2.13;;;23.30;67.70;;;24.11;43.52;99258.44;4983373;28;118968;-88
2022/07/13 07:04:51;;;;;;;4.80;2.30;;;23.40;67.70;;;24.21;43.66;99263.34;4987848;28;124187;-93
2022/07/13 07:07:17;;;;;;;4.00;2.13;;;23.50;67.60;;;24.35;43.44;99265.44;4989517;28;125531;-94
2022/07/13 07:09:44;;;;;;;6.20;2.20;;;23.50;67.30;;;24.47;42.94;99265.13;4992122;28;118821;-93
2022/07/13 07:12:10;;;;;;;3.30;2.23;;;23.70;67.10;;;24.60;42.96;99268.44;4992468;28;118437;-93
2022/07/13 07:14:37;;;;;;;3.57;1.90;;;23.80;67.00;;;24.76;42.59;99263.25;4992715;28;122153;-91
2022/07/13 07:17:04;;;;;;;4.23;2.00;;;23.90;66.80;;;24.94;42.34;99254.06;4991392;28;122799;-93
2022/07/13 07:19:30;;;;;;;3.13;2.20;;;24.10;66.60;;;25.08;41.76;99249.25;4988133;28;119751;-93
2022/07/13 07:21:57;;;;;;;5.90;2.20;;;24.50;66.50;;;25.23;41.48;99255.78;4990077;28;119672;-91
2022/07/13 07:24:23;;;;;;;4.10;2.10;;;24.30;65.80;;;25.33;41.34;99245.69;4988007;28;123962;-93
2022/07/13 07:26:51;;;;;;;4.07;2.07;;;24.40;65.30;;;25.43;41.01;99249.75;4989480;28;123878;-88
2022/07/13 07:29:17;;;;;;;4.07;2.07;;;24.50;65.00;;;25.54;40.06;99248.56;4988707;28;119486;-88
2022/07/13 07:31:44;;;;;;;5.17;1.77;;;24.70;64.10;;;25.63;39.90;99247.34;4987031;28;119244;-87
2022/07/13 07:34:10;;;;;;;3.60;2.20;;;24.70;63.40;;;25.72;39.65;99231.59;4987131;28;124102;-88
2022/07/13 07:36:37;;;;;;;3.40;2.00;;;24.90;63.00;;;25.83;39.39;99236.44;5004183;28;122928;-92
2022/07/13 07:39:04;;;;;;;4.27;1.90;;;25.00;62.50;;;25.94;39.13;99240.09;4986157;28;120236;-89
2022/07/13 07:41:31;;;;;;;3.10;1.80;;;25.10;62.10;;;26.05;38.80;99223.91;4987144;28;118661;-90
2022/07/13 07:43:59;;;;;;;3.33;1.90;;;25.20;61.30;;;26.14;38.60;99229.97;4972864;28;123874;-89
2022/07/13 07:46:25;;;;;;;5.23;1.50;;;25.20;60.90;;;26.20;38.03;99221.88;4975619;28;123175;-87
2022/07/13 07:48:52;;;;;;;20.07;1.87;;;25.40;60.70;;;26.32;37.96;99224.25;4986596;28;119196;-87
2022/07/13 07:51:19;;;;;;;1.73;1.33;;;25.50;60.40;;;26.44;37.33;99223.81;4988061;28;118560;-87
2022/07/13 07:53:45;;;;;;;22.47;2.20;;;25.60;59.90;;;26.57;36.99;99223.38;4986966;28;123307;-88
2022/07/13 07:56:11;;;;;;;3.53;2.47;;;25.70;59.30;;;26.66;37.22;99218.09;4982880;28;124158;-88
2022/07/13 07:58:38;;;;;;;2.07;1.50;;;25.80;58.90;;;26.76;36.99;99222.94;4968754;28;119491;-89
2022/07/13 08:01:05;;;;;;;4.80;1.83;;;25.90;58.60;;;26.83;36.72;99225.72;4965373;28;119343;-88
2022/07/13 08:03:32;;;;;;;5.60;2.03;;;26.00;58.20;;;26.92;36.23;99222.47;4968409;28;123426;-88
2022/07/13 08:05:58;;;;;;;4.53;1.83;;;26.00;57.80;;;27.00;36.10;99220.38;4977322;28;122727;-88
2022/07/13 08:08:26;;;;;;;1.73;1.23;;;26.10;58.40;;;27.08;36.38;99227.59;4968545;28;120201;-88
2022/07/13 08:10:54;;;;;;;8.20;1.53;;;26.30;57.70;;;27.11;36.64;99221.13;4967217;28;120111;-88
2022/07/13 08:13:20;;;;;;;4.53;2.10;;;26.30;57.70;;;27.16;36.69;99212.16;4970308;28;124129;-89
2022/07/13 08:15:47;;;;;;;5.80;1.97;;;26.30;57.60;;;27.17;36.55;99216.66;4971276;28;124166;-89
2022/07/13 08:18:13;;;;;;;5.10;1.87;;;26.40;57.60;;;27.21;36.98;99217.44;4978132;28;119760;-89
2022/07/13 08:20:40;;;;;;;7.27;2.00;;;26.50;57.90;;;27.26;36.72;99214.16;4998325;28;117842;-89
2022/07/13 08:23:50;;;;;;;3.20;1.50;;;26.60;57.70;;;27.29;36.85;99213.31;4969388;28;122838;-89
2022/07/13 08:25:53;;;;;;;6.90;1.87;;;26.60;57.80;;;27.31;36.79;99219.41;4970442;28;123700;-88
2022/07/13 08:28:19;;;;;;;4.00;2.40;;;26.60;57.40;;;27.34;36.72;99211.28;4973908;28;119461;-88
2022/07/13 08:30:46;;;;;;;7.37;2.50;;;26.60;57.30;;;27.37;36.47;99218.97;4976270;28;117499;-89
2022/07/13 08:33:12;;;;;;;8.60;2.10;;;26.70;57.50;;;27.42;37.05;99212.84;4981282;28;124661;-89
2022/07/13 08:38:37;;;;;;;3.70;2.17;;;26.80;57.50;;;27.52;36.40;99211.97;4972396;28;120308;-89
2022/07/13 08:41:05;;;;;;;6.20;1.70;;;26.90;57.20;;;27.53;36.51;99205.06;4970132;28;119724;-89
2022/07/13 08:43:33;;;;;;;5.60;2.00;;;26.90;56.80;;;27.52;36.23;99207.09;4971848;28;124341;-89
2022/07/13 08:46:06;;;;;;;3.70;1.60;;;26.90;57.40;;;27.56;36.09;99204.22;4967330;28;123021;-88
2022/07/13 08:48:37;;;;;;;5.87;1.57;;;26.90;56.80;;;27.59;36.46;99206.22;4983476;28;118681;-88
2022/07/13 08:51:05;;;;;;;4.63;2.27;;;27.00;56.60;;;27.66;35.62;99206.16;4970303;28;119023;-88
2022/07/13 08:53:32;;;;;;;4.27;1.87;;;27.00;56.30;;;27.73;35.34;99206.09;4980663;28;123302;-88
2022/07/13 08:56:36;;;;;;;5.30;2.97;;;27.10;55.80;;;27.73;35.00;99202.47;4974258;28;123771;-89
2022/07/13 08:59:23;;;;;;;4.43;2.30;;;27.10;54.90;;;27.80;35.04;99196.72;4974150;28;120712;-89
2022/07/13 09:01:50;;;;;;;5.33;2.60;;;27.20;54.60;;;27.89;34.39;99199.13;4985851;28;120248;-87
2022/07/13 09:08:06;;;;;;;4.23;1.60;;;27.30;53.30;;;28.03;33.00;99192.47;4975871;28;124636;-89
2022/07/13 09:10:55;;;;;;;3.00;1.50;;;27.40;52.40;;;28.08;33.12;99192.81;4976419;28;119594;-88
2022/07/13 09:13:42;;;;;;;2.50;1.40;;;27.50;51.70;;;28.16;32.94;99191.53;4976887;28;118996;-88
2022/07/13 09:16:21;;;;;;;2.53;1.30;;;27.60;51.60;;;28.25;32.05;99185.31;4975394;28;125050;-87
2022/07/13 09:18:53;;;;;;;1.80;1.40;;;27.60;51.00;;;28.33;32.13;99194.59;4970517;28;124100;-87
2022/07/13 09:21:20;;;;;;;1.90;1.40;;;27.70;50.60;;;28.40;31.98;99185.97;4969723;28;118585;-88
2022/07/13 09:23:49;;;;;;;1.33;1.10;;;27.70;50.30;;;28.48;30.89;99196.06;4979092;28;118957;-87
2022/07/13 09:26:18;;;;;;;1.77;1.10;;;27.80;49.20;;;28.54;30.05;99194.38;4981046;28;123281;-87
2022/07/13 09:28:46;;;;;;;2.30;1.10;;;27.90;47.80;;;28.57;29.51;99199.19;4967992;28;124900;-88
2022/07/13 09:31:14;;;;;;;1.17;1.07;;;27.90;46.80;;;28.61;29.56;99194.28;4970230;28;122459;-87
2022/07/13 09:33:45;;;;;;;3.00;1.30;;;28.00;46.60;;;28.66;29.61;99203.56;4968820;28;119002;-88
2022/07/13 09:36:20;;;;;;;1.97;1.00;;;28.00;46.70;;;28.70;29.45;99196.59;4968440;28;125218;-87
2022/07/13 09:38:53;;;;;;;1.27;0.90;;;28.10;46.40;;;28.71;29.50;99183.19;4970007;28;124450;-87
2022/07/13 09:41:26;;;;;;;1.40;1.20;;;28.10;45.70;;;28.71;28.84;99195.38;4984650;28;119230;-87
2022/07/13 09:47:05;;;;;;;4.60;1.73;;;28.20;45.10;;;28.76;28.84;99177.03;4972840;28;125115;-89
2022/07/13 09:49:41;;;;;;;1.50;0.90;;;28.20;44.70;;;28.82;28.63;99193.19;4958872;28;121826;-88
2022/07/13 09:52:11;;;;;;;1.13;0.90;;;28.30;44.60;;;28.87;28.51;99188.25;4991556;28;120399;-89
2022/07/13 09:54:41;;;;;;;1.33;1.10;;;28.30;44.20;;;28.91;27.98;99189.84;4970879;28;117880;-88
2022/07/13 09:57:11;;;;;;;2.50;0.90;;;28.30;43.80;;;28.96;28.39;99185.69;4968305;28;124043;-87
2022/07/13 09:59:42;;;;;;;4.23;1.50;;;28.40;44.00;;;28.99;28.40;99179.97;4974812;28;123868;-89
2022/07/13 10:02:10;;;;;;;5.17;1.90;;;28.40;44.00;;;29.02;28.06;99184.78;4954904;28;119196;-88
2022/07/13 10:04:38;;;;;;;1.40;1.10;;;28.40;43.90;;;29.05;28.47;99183.97;4979400;28;120098;-89
2022/07/13 10:07:05;;;;;;;1.40;1.20;;;28.50;44.00;;;29.08;28.33;99179.44;4971320;28;123256;-88
2022/07/13 10:09:32;;;;;;;2.50;1.20;;;28.50;43.90;;;29.10;28.07;99179.00;4969858;28;124186;-88
2022/07/13 10:12:00;;;;;;;1.20;1.03;;;28.60;43.60;;;29.12;27.22;99183.03;4970955;28;119417;-87
2022/07/13 10:14:27;;;;;;;1.77;1.10;;;28.60;42.70;;;29.14;27.27;99191.97;4968225;28;119000;-87
2022/07/13 10:17:06;;;;;;;1.20;0.90;;;28.60;42.80;;;29.15;27.05;99187.06;4966563;28;123968;-87
2022/07/13 10:19:41;;;;;;;1.20;1.10;;;28.60;41.70;;;29.16;26.83;99180.16;4981115;28;123914;-87
2022/07/13 10:22:14;;;;;;;1.10;1.00;;;28.60;41.50;;;29.19;26.07;99184.97;4968660;28;119969;-88
2022/07/13 10:24:57;;;;;;;3.70;1.10;;;28.60;40.70;;;29.21;25.96;99183.31;4970654;28;119337;-88